KSFY

Tri-Township Airport

Savanna, Illinois, USA
METAR KSFY 182136Z AUTO 08004KT 10SM BKN044 BKN050 OVC080 29/19 A2999 RMK AO2
Observed Flight Rules
Aug-18 @ 21:36 UTC (19 minutes ago) Visual Flight Rules
Wind Visibility Clouds
80° at 4 knots 10 miles
  • Broken at 4,400' AGL
  • Broken at 5,000' AGL
  • Overcast at 8,000' AGL
Temperatures Readings
Current 29°C / 84°F
Dewpoint 19°C / 66°F
Humidity 55%
Altimeter 29.99" Hg
Pressure 1016 hPa
Elevation 188
METAR KSFY 182136Z AUTO 08004KT 10SM BKN044 BKN050 OVC080 29/19 A2999 RMK AO2
Observed Flight Rules
Aug-18 @ 21:36 UTC
(19 minutes ago)
VFR
Wind Visibility
80° at 4 knots 10 miles
Clouds
  • Broken at 4,400' AGL
  • Broken at 5,000' AGL
  • Overcast at 8,000' AGL
Temperature Dewpoint
29°C / 84°F 19°C / 66°F
Humidity Altimeter Pressure
55% 29.99" Hg 1016 hPa